Aviation Digital Data Service (ADDS)

Output produced by METARs form (0655 UTC 20 March 2019)
found at http://www.aviationweather.gov/metar/data/
 
METAR text: ENRY 200620Z AUTO 20008KT 9999NDV FEW007/// SCT009/// 05/03 Q1015
Conditions at: ENRY (RYGGE (NOR-AFB) , NO) observed 0620 UTC 20 March 2019
Temperature: 5.0°C (41°F)
Dewpoint: 3.0°C (37°F) [RH = 87%]
Pressure (altimeter): 29.97 inches Hg (1015.0 mb)
Winds: from the SSW (200 degrees) at 9 MPH (8 knots; 4.1 m/s)
Visibility: missing
Ceiling: at least 12,000 feet AGL
Clouds: few clouds at 700 feet AGL
scattered clouds at 900 feet AGL
Weather: no significant weather observed at this time

METAR text: ENRY 200550Z AUTO 20008KT 9999NDV BKN007/// BKN009/// OVC011/// 05/04 Q1015
Conditions at: ENRY (RYGGE (NOR-AFB) , NO) observed 0550 UTC 20 March 2019
Temperature: 5.0°C (41°F)
Dewpoint: 4.0°C (39°F) [RH = 93%]
Pressure (altimeter): 29.97 inches Hg (1015.0 mb)
Winds: from the SSW (200 degrees) at 9 MPH (8 knots; 4.1 m/s)
Visibility: missing
Ceiling: 700 feet AGL
Clouds: broken clouds at 700 feet AGL
broken clouds at 900 feet AGL
overcast cloud deck at 1100 feet AGL
Weather: no significant weather observed at this time

METAR text: ENRY 200520Z AUTO 19007KT 8000NDV SCT003/// OVC008/// 05/04 Q1015
Conditions at: ENRY (RYGGE (NOR-AFB) , NO) observed 0520 UTC 20 March 2019
Temperature: 5.0°C (41°F)
Dewpoint: 4.0°C (39°F) [RH = 93%]
Pressure (altimeter): 29.97 inches Hg (1015.0 mb)
Winds: from the S (190 degrees) at 8 MPH (7 knots; 3.6 m/s)
Visibility: missing
Ceiling: 800 feet AGL
Clouds: scattered clouds at 300 feet AGL
overcast cloud deck at 800 feet AGL
Weather: no significant weather observed at this time

METAR text: ENRY 200450Z AUTO 19009KT 7000NDV BKN003/// BKN004/// OVC007/// 05/04 Q1015
Conditions at: ENRY (RYGGE (NOR-AFB) , NO) observed 0450 UTC 20 March 2019
Temperature: 5.0°C (41°F)
Dewpoint: 4.0°C (39°F) [RH = 93%]
Pressure (altimeter): 29.97 inches Hg (1015.0 mb)
Winds: from the S (190 degrees) at 10 MPH (9 knots; 4.6 m/s)
Visibility: missing
Ceiling: 300 feet AGL
Clouds: broken clouds at 300 feet AGL
broken clouds at 400 feet AGL
overcast cloud deck at 700 feet AGL
Weather: no significant weather observed at this time

METAR text: ENRY 200420Z AUTO 20012KT 9000NDV FEW004/// OVC007/// 05/04 Q1015
Conditions at: ENRY (RYGGE (NOR-AFB) , NO) observed 0420 UTC 20 March 2019
Temperature: 5.0°C (41°F)
Dewpoint: 4.0°C (39°F) [RH = 93%]
Pressure (altimeter): 29.97 inches Hg (1015.0 mb)
Winds: from the SSW (200 degrees) at 14 MPH (12 knots; 6.2 m/s)
Visibility: missing
Ceiling: 700 feet AGL
Clouds: few clouds at 400 feet AGL
overcast cloud deck at 700 feet AGL
Weather: no significant weather observed at this time

METAR text: ENRY 200350Z AUTO 20010KT 9000NDV OVC004/// 05/04 Q1016
Conditions at: ENRY (RYGGE (NOR-AFB) , NO) observed 0350 UTC 20 March 2019
Temperature: 5.0°C (41°F)
Dewpoint: 4.0°C (39°F) [RH = 93%]
Pressure (altimeter): 30.00 inches Hg (1016.0 mb)
Winds: from the SSW (200 degrees) at 12 MPH (10 knots; 5.1 m/s)
Visibility: missing
Ceiling: 400 feet AGL
Clouds: overcast cloud deck at 400 feet AGL
Weather: no significant weather observed at this time

METAR text: ENRY 200320Z AUTO 20016KT 9000NDV OVC004/// 05/04 Q1016
Conditions at: ENRY (RYGGE (NOR-AFB) , NO) observed 0320 UTC 20 March 2019
Temperature: 5.0°C (41°F)
Dewpoint: 4.0°C (39°F) [RH = 93%]
Pressure (altimeter): 30.00 inches Hg (1016.0 mb)
Winds: from the SSW (200 degrees) at 18 MPH (16 knots; 8.2 m/s)
Visibility: missing
Ceiling: 400 feet AGL
Clouds: overcast cloud deck at 400 feet AGL
Weather: no significant weather observed at this time

METAR text: ENRY 200250Z AUTO 20016KT 9999NDV BKN005/// OVC026/// 05/03 Q1016
Conditions at: ENRY (RYGGE (NOR-AFB) , NO) observed 0250 UTC 20 March 2019
Temperature: 5.0°C (41°F)
Dewpoint: 3.0°C (37°F) [RH = 87%]
Pressure (altimeter): 30.00 inches Hg (1016.0 mb)
Winds: from the SSW (200 degrees) at 18 MPH (16 knots; 8.2 m/s)
Visibility: missing
Ceiling: 500 feet AGL
Clouds: broken clouds at 500 feet AGL
overcast cloud deck at 2600 feet AGL
Weather: no significant weather observed at this time

METAR text: ENRY 200220Z AUTO 20010KT 9999NDV BKN006/// OVC009/// 04/03 Q1016
Conditions at: ENRY (RYGGE (NOR-AFB) , NO) observed 0220 UTC 20 March 2019
Temperature: 4.0°C (39°F)
Dewpoint: 3.0°C (37°F) [RH = 93%]
Pressure (altimeter): 30.00 inches Hg (1016.0 mb)
Winds: from the SSW (200 degrees) at 12 MPH (10 knots; 5.1 m/s)
Visibility: missing
Ceiling: 600 feet AGL
Clouds: broken clouds at 600 feet AGL
overcast cloud deck at 900 feet AGL
Weather: no significant weather observed at this time

METAR text: ENRY 200150Z AUTO 19011KT 9999NDV SCT007/// BKN009/// OVC015/// 04/03 Q1017
Conditions at: ENRY (RYGGE (NOR-AFB) , NO) observed 0150 UTC 20 March 2019
Temperature: 4.0°C (39°F)
Dewpoint: 3.0°C (37°F) [RH = 93%]
Pressure (altimeter): 30.03 inches Hg (1017.0 mb)
Winds: from the S (190 degrees) at 13 MPH (11 knots; 5.7 m/s)
Visibility: missing
Ceiling: 900 feet AGL
Clouds: scattered clouds at 700 feet AGL
broken clouds at 900 feet AGL
overcast cloud deck at 1500 feet AGL
Weather: no significant weather observed at this time

METAR text: ENRY 200120Z AUTO 20014KT 9999NDV -DZ FEW008/// SCT044/// OVC066/// 04/03 Q1017
Conditions at: ENRY (RYGGE (NOR-AFB) , NO) observed 0120 UTC 20 March 2019
Temperature: 4.0°C (39°F)
Dewpoint: 3.0°C (37°F) [RH = 93%]
Pressure (altimeter): 30.03 inches Hg (1017.0 mb)
Winds: from the SSW (200 degrees) at 16 MPH (14 knots; 7.2 m/s)
Visibility: missing
Ceiling: 6600 feet AGL
Clouds: few clouds at 800 feet AGL
scattered clouds at 4400 feet AGL
overcast cloud deck at 6600 feet AGL
Weather: -DZ  (light drizzle)

METAR text: ENRY 200050Z AUTO 20010KT 9999NDV -DZ ///024 04/01 Q1017
Conditions at: ENRY (RYGGE (NOR-AFB) , NO) observed 0050 UTC 20 March 2019
Temperature: 4.0°C (39°F)
Dewpoint: 1.0°C (34°F) [RH = 81%]
Pressure (altimeter): 30.03 inches Hg (1017.0 mb)
Winds: from the SSW (200 degrees) at 12 MPH (10 knots; 5.1 m/s)
Visibility: missing
Ceiling: unknown
Clouds: missing
Weather: -DZ  (light drizzle)

METAR text: ENRY 200020Z AUTO 20011KT 9999NDV FEW034/// BKN055/// 04/00 Q1018 REUP
Conditions at: ENRY (RYGGE (NOR-AFB) , NO) observed 0020 UTC 20 March 2019
Temperature: 4.0°C (39°F)
Dewpoint: 0.0°C (32°F) [RH = 75%]
Pressure (altimeter): 30.06 inches Hg (1018.0 mb)
Winds: from the SSW (200 degrees) at 13 MPH (11 knots; 5.7 m/s)
Visibility: missing
Ceiling: 5500 feet AGL
Clouds: few clouds at 3400 feet AGL
broken clouds at 5500 feet AGL
Weather: no significant weather observed at this time

METAR text: ENRY 192350Z AUTO 20010KT 9999NDV FEW032/// 04/M01 Q1018
Conditions at: ENRY (RYGGE (NOR-AFB) , NO) observed 2350 UTC 19 March 2019
Temperature: 4.0°C (39°F)
Dewpoint: -1.0°C (30°F) [RH = 70%]
Pressure (altimeter): 30.06 inches Hg (1018.0 mb)
Winds: from the SSW (200 degrees) at 12 MPH (10 knots; 5.1 m/s)
Visibility: missing
Ceiling: at least 12,000 feet AGL
Clouds: few clouds at 3200 feet AGL
Weather: no significant weather observed at this time

METAR text: ENRY 192320Z AUTO 21009KT 9999NDV FEW070/// 04/M03 Q1018
Conditions at: ENRY (RYGGE (NOR-AFB) , NO) observed 2320 UTC 19 March 2019
Temperature: 4.0°C (39°F)
Dewpoint: -3.0°C (27°F) [RH = 60%]
Pressure (altimeter): 30.06 inches Hg (1018.0 mb)
Winds: from the SSW (210 degrees) at 10 MPH (9 knots; 4.6 m/s)
Visibility: missing
Ceiling: at least 12,000 feet AGL
Clouds: few clouds at 7000 feet AGL
Weather: no significant weather observed at this time

METAR text: ENRY 192250Z 21007KT 170V240 CAVOK 03/M02 Q1018
Conditions at: ENRY (RYGGE (NOR-AFB) , NO) observed 2250 UTC 19 March 2019
Temperature: 3.0°C (37°F)
Dewpoint: -2.0°C (28°F) [RH = 70%]
Pressure (altimeter): 30.06 inches Hg (1018.0 mb)
Winds: from the SSW (210 degrees) at 8 MPH (7 knots; 3.6 m/s)
Visibility: 6 or more miles (10+ km)
Ceiling: ceiling and visibility are OK
Clouds: unknown
Weather: no significant weather observed at this time

METAR text: ENRY 192220Z 19007KT CAVOK 03/01 Q1019
Conditions at: ENRY (RYGGE (NOR-AFB) , NO) observed 2220 UTC 19 March 2019
Temperature: 3.0°C (37°F)
Dewpoint: 1.0°C (34°F) [RH = 87%]
Pressure (altimeter): 30.09 inches Hg (1019.0 mb)
Winds: from the S (190 degrees) at 8 MPH (7 knots; 3.6 m/s)
Visibility: 6 or more miles (10+ km)
Ceiling: ceiling and visibility are OK
Clouds: unknown
Weather: no significant weather observed at this time

METAR text: ENRY 192150Z 13006KT CAVOK 02/00 Q1019
Conditions at: ENRY (RYGGE (NOR-AFB) , NO) observed 2150 UTC 19 March 2019
Temperature: 2.0°C (36°F)
Dewpoint: 0.0°C (32°F) [RH = 87%]
Pressure (altimeter): 30.09 inches Hg (1019.0 mb)
Winds: from the SE (130 degrees) at 7 MPH (6 knots; 3.1 m/s)
Visibility: 6 or more miles (10+ km)
Ceiling: ceiling and visibility are OK
Clouds: unknown
Weather: no significant weather observed at this time

METAR text: ENRY 192120Z 16008KT CAVOK 03/01 Q1019
Conditions at: ENRY (RYGGE (NOR-AFB) , NO) observed 2120 UTC 19 March 2019
Temperature: 3.0°C (37°F)
Dewpoint: 1.0°C (34°F) [RH = 87%]
Pressure (altimeter): 30.09 inches Hg (1019.0 mb)
Winds: from the SSE (160 degrees) at 9 MPH (8 knots; 4.1 m/s)
Visibility: 6 or more miles (10+ km)
Ceiling: ceiling and visibility are OK
Clouds: unknown
Weather: no significant weather observed at this time

METAR text: ENRY 192050Z 16006KT CAVOK 03/00 Q1019
Conditions at: ENRY (RYGGE (NOR-AFB) , NO) observed 2050 UTC 19 March 2019
Temperature: 3.0°C (37°F)
Dewpoint: 0.0°C (32°F) [RH = 81%]
Pressure (altimeter): 30.09 inches Hg (1019.0 mb)
Winds: from the SSE (160 degrees) at 7 MPH (6 knots; 3.1 m/s)
Visibility: 6 or more miles (10+ km)
Ceiling: ceiling and visibility are OK
Clouds: unknown
Weather: no significant weather observed at this time

METAR text: ENRY 192020Z 17007KT CAVOK 03/M00 Q1020
Conditions at: ENRY (RYGGE (NOR-AFB) , NO) observed 2020 UTC 19 March 2019
Temperature: 3.0°C (37°F)
Dewpoint: 0.0°C (32°F) [RH = 81%]
Pressure (altimeter): 30.12 inches Hg (1020.0 mb)
Winds: from the S (170 degrees) at 8 MPH (7 knots; 3.6 m/s)
Visibility: 6 or more miles (10+ km)
Ceiling: ceiling and visibility are OK
Clouds: unknown
Weather: no significant weather observed at this time

METAR text: ENRY 191950Z 18009KT CAVOK 03/M00 Q1020
Conditions at: ENRY (RYGGE (NOR-AFB) , NO) observed 1950 UTC 19 March 2019
Temperature: 3.0°C (37°F)
Dewpoint: 0.0°C (32°F) [RH = 81%]
Pressure (altimeter): 30.12 inches Hg (1020.0 mb)
Winds: from the S (180 degrees) at 10 MPH (9 knots; 4.6 m/s)
Visibility: 6 or more miles (10+ km)
Ceiling: ceiling and visibility are OK
Clouds: unknown
Weather: no significant weather observed at this time

METAR text: ENRY 191920Z 18009KT CAVOK 03/00 Q1021
Conditions at: ENRY (RYGGE (NOR-AFB) , NO) observed 1920 UTC 19 March 2019
Temperature: 3.0°C (37°F)
Dewpoint: 0.0°C (32°F) [RH = 81%]
Pressure (altimeter): 30.15 inches Hg (1021.0 mb)
Winds: from the S (180 degrees) at 10 MPH (9 knots; 4.6 m/s)
Visibility: 6 or more miles (10+ km)
Ceiling: ceiling and visibility are OK
Clouds: unknown
Weather: no significant weather observed at this time

METAR text: ENRY 191850Z 18008KT CAVOK 03/00 Q1021
Conditions at: ENRY (RYGGE (NOR-AFB) , NO) observed 1850 UTC 19 March 2019
Temperature: 3.0°C (37°F)
Dewpoint: 0.0°C (32°F) [RH = 81%]
Pressure (altimeter): 30.15 inches Hg (1021.0 mb)
Winds: from the S (180 degrees) at 9 MPH (8 knots; 4.1 m/s)
Visibility: 6 or more miles (10+ km)
Ceiling: ceiling and visibility are OK
Clouds: unknown
Weather: no significant weather observed at this time

METAR text: ENRY 191820Z 19009KT CAVOK 03/00 Q1021
Conditions at: ENRY (RYGGE (NOR-AFB) , NO) observed 1820 UTC 19 March 2019
Temperature: 3.0°C (37°F)
Dewpoint: 0.0°C (32°F) [RH = 81%]
Pressure (altimeter): 30.15 inches Hg (1021.0 mb)
Winds: from the S (190 degrees) at 10 MPH (9 knots; 4.6 m/s)
Visibility: 6 or more miles (10+ km)
Ceiling: ceiling and visibility are OK
Clouds: unknown
Weather: no significant weather observed at this time

METAR text: ENRY 191750Z 18010KT CAVOK 03/M00 Q1021
Conditions at: ENRY (RYGGE (NOR-AFB) , NO) observed 1750 UTC 19 March 2019
Temperature: 3.0°C (37°F)
Dewpoint: 0.0°C (32°F) [RH = 81%]
Pressure (altimeter): 30.15 inches Hg (1021.0 mb)
Winds: from the S (180 degrees) at 12 MPH (10 knots; 5.1 m/s)
Visibility: 6 or more miles (10+ km)
Ceiling: ceiling and visibility are OK
Clouds: unknown
Weather: no significant weather observed at this time

METAR text: ENRY 191720Z 18009KT CAVOK 03/M01 Q1021
Conditions at: ENRY (RYGGE (NOR-AFB) , NO) observed 1720 UTC 19 March 2019
Temperature: 3.0°C (37°F)
Dewpoint: -1.0°C (30°F) [RH = 75%]
Pressure (altimeter): 30.15 inches Hg (1021.0 mb)
Winds: from the S (180 degrees) at 10 MPH (9 knots; 4.6 m/s)
Visibility: 6 or more miles (10+ km)
Ceiling: ceiling and visibility are OK
Clouds: unknown
Weather: no significant weather observed at this time

METAR text: ENRY 191650Z 18009KT CAVOK 04/M02 Q1021
Conditions at: ENRY (RYGGE (NOR-AFB) , NO) observed 1650 UTC 19 March 2019
Temperature: 4.0°C (39°F)
Dewpoint: -2.0°C (28°F) [RH = 65%]
Pressure (altimeter): 30.15 inches Hg (1021.0 mb)
Winds: from the S (180 degrees) at 10 MPH (9 knots; 4.6 m/s)
Visibility: 6 or more miles (10+ km)
Ceiling: ceiling and visibility are OK
Clouds: unknown
Weather: no significant weather observed at this time

METAR text: ENRY 191620Z 20009KT CAVOK 04/M02 Q1021
Conditions at: ENRY (RYGGE (NOR-AFB) , NO) observed 1620 UTC 19 March 2019
Temperature: 4.0°C (39°F)
Dewpoint: -2.0°C (28°F) [RH = 65%]
Pressure (altimeter): 30.15 inches Hg (1021.0 mb)
Winds: from the SSW (200 degrees) at 10 MPH (9 knots; 4.6 m/s)
Visibility: 6 or more miles (10+ km)
Ceiling: ceiling and visibility are OK
Clouds: unknown
Weather: no significant weather observed at this time

METAR text: ENRY 191550Z 19011KT CAVOK 05/M02 Q1021
Conditions at: ENRY (RYGGE (NOR-AFB) , NO) observed 1550 UTC 19 March 2019
Temperature: 5.0°C (41°F)
Dewpoint: -2.0°C (28°F) [RH = 60%]
Pressure (altimeter): 30.15 inches Hg (1021.0 mb)
Winds: from the S (190 degrees) at 13 MPH (11 knots; 5.7 m/s)
Visibility: 6 or more miles (10+ km)
Ceiling: ceiling and visibility are OK
Clouds: unknown
Weather: no significant weather observed at this time

METAR text: ENRY 191520Z 19010KT CAVOK 05/M04 Q1021
Conditions at: ENRY (RYGGE (NOR-AFB) , NO) observed 1520 UTC 19 March 2019
Temperature: 5.0°C (41°F)
Dewpoint: -4.0°C (25°F) [RH = 52%]
Pressure (altimeter): 30.15 inches Hg (1021.0 mb)
Winds: from the S (190 degrees) at 12 MPH (10 knots; 5.1 m/s)
Visibility: 6 or more miles (10+ km)
Ceiling: ceiling and visibility are OK
Clouds: unknown
Weather: no significant weather observed at this time

METAR text: ENRY 191450Z 20010KT CAVOK 05/M06 Q1021
Conditions at: ENRY (RYGGE (NOR-AFB) , NO) observed 1450 UTC 19 March 2019
Temperature: 5.0°C (41°F)
Dewpoint: -6.0°C (21°F) [RH = 45%]
Pressure (altimeter): 30.15 inches Hg (1021.0 mb)
Winds: from the SSW (200 degrees) at 12 MPH (10 knots; 5.1 m/s)
Visibility: 6 or more miles (10+ km)
Ceiling: ceiling and visibility are OK
Clouds: unknown
Weather: no significant weather observed at this time

METAR text: ENRY 191420Z 20009KT CAVOK 06/M07 Q1021 NOSIG
Conditions at: ENRY (RYGGE (NOR-AFB) , NO) observed 1420 UTC 19 March 2019
Temperature: 6.0°C (43°F)
Dewpoint: -7.0°C (19°F) [RH = 39%]
Pressure (altimeter): 30.15 inches Hg (1021.0 mb)
Winds: from the SSW (200 degrees) at 10 MPH (9 knots; 4.6 m/s)
Visibility: 6 or more miles (10+ km)
Ceiling: ceiling and visibility are OK
Clouds: unknown
Weather: no significant weather observed at this time

METAR text: ENRY 191350Z 19009KT CAVOK 06/M07 Q1021 NOSIG
Conditions at: ENRY (RYGGE (NOR-AFB) , NO) observed 1350 UTC 19 March 2019
Temperature: 6.0°C (43°F)
Dewpoint: -7.0°C (19°F) [RH = 39%]
Pressure (altimeter): 30.15 inches Hg (1021.0 mb)
Winds: from the S (190 degrees) at 10 MPH (9 knots; 4.6 m/s)
Visibility: 6 or more miles (10+ km)
Ceiling: ceiling and visibility are OK
Clouds: unknown
Weather: no significant weather observed at this time

METAR text: ENRY 191320Z 19007KT 160V220 CAVOK 07/M07 Q1021 NOSIG
Conditions at: ENRY (RYGGE (NOR-AFB) , NO) observed 1320 UTC 19 March 2019
Temperature: 7.0°C (45°F)
Dewpoint: -7.0°C (19°F) [RH = 36%]
Pressure (altimeter): 30.15 inches Hg (1021.0 mb)
Winds: from the S (190 degrees) at 8 MPH (7 knots; 3.6 m/s)
Visibility: 6 or more miles (10+ km)
Ceiling: ceiling and visibility are OK
Clouds: unknown
Weather: no significant weather observed at this time

METAR text: ENRY 191250Z 18005KT 150V230 CAVOK 07/M08 Q1021 NOSIG
Conditions at: ENRY (RYGGE (NOR-AFB) , NO) observed 1250 UTC 19 March 2019
Temperature: 7.0°C (45°F)
Dewpoint: -8.0°C (18°F) [RH = 33%]
Pressure (altimeter): 30.15 inches Hg (1021.0 mb)
Winds: from the S (180 degrees) at 6 MPH (5 knots; 2.6 m/s)
Visibility: 6 or more miles (10+ km)
Ceiling: ceiling and visibility are OK
Clouds: unknown
Weather: no significant weather observed at this time

METAR text: ENRY 191220Z 18004KT 120V250 CAVOK 07/M09 Q1021 NOSIG
Conditions at: ENRY (RYGGE (NOR-AFB) , NO) observed 1220 UTC 19 March 2019
Temperature: 7.0°C (45°F)
Dewpoint: -9.0°C (16°F) [RH = 31%]
Pressure (altimeter): 30.15 inches Hg (1021.0 mb)
Winds: from the S (180 degrees) at 5 MPH (4 knots; 2.1 m/s)
Visibility: 6 or more miles (10+ km)
Ceiling: ceiling and visibility are OK
Clouds: unknown
Weather: no significant weather observed at this time

METAR text: ENRY 191150Z 26003KT 220V350 CAVOK 07/M09 Q1021 NOSIG
Conditions at: ENRY (RYGGE (NOR-AFB) , NO) observed 1150 UTC 19 March 2019
Temperature: 7.0°C (45°F)
Dewpoint: -9.0°C (16°F) [RH = 31%]
Pressure (altimeter): 30.15 inches Hg (1021.0 mb)
Winds: from the W (260 degrees) at 3 MPH (3 knots; 1.5 m/s)
Visibility: 6 or more miles (10+ km)
Ceiling: ceiling and visibility are OK
Clouds: unknown
Weather: no significant weather observed at this time

METAR text: ENRY 191120Z 29005KT 250V330 CAVOK 06/M09 Q1021 NOSIG
Conditions at: ENRY (RYGGE (NOR-AFB) , NO) observed 1120 UTC 19 March 2019
Temperature: 6.0°C (43°F)
Dewpoint: -9.0°C (16°F) [RH = 33%]
Pressure (altimeter): 30.15 inches Hg (1021.0 mb)
Winds: from the WNW (290 degrees) at 6 MPH (5 knots; 2.6 m/s)
Visibility: 6 or more miles (10+ km)
Ceiling: ceiling and visibility are OK
Clouds: unknown
Weather: no significant weather observed at this time

METAR text: ENRY 191050Z 28004KT 240V010 CAVOK 06/M08 Q1021 NOSIG
Conditions at: ENRY (RYGGE (NOR-AFB) , NO) observed 1050 UTC 19 March 2019
Temperature: 6.0°C (43°F)
Dewpoint: -8.0°C (18°F) [RH = 36%]
Pressure (altimeter): 30.15 inches Hg (1021.0 mb)
Winds: from the W (280 degrees) at 5 MPH (4 knots; 2.1 m/s)
Visibility: 6 or more miles (10+ km)
Ceiling: ceiling and visibility are OK
Clouds: unknown
Weather: no significant weather observed at this time

METAR text: ENRY 191020Z 32004KT 280V030 CAVOK 05/M08 Q1021 NOSIG
Conditions at: ENRY (RYGGE (NOR-AFB) , NO) observed 1020 UTC 19 March 2019
Temperature: 5.0°C (41°F)
Dewpoint: -8.0°C (18°F) [RH = 38%]
Pressure (altimeter): 30.15 inches Hg (1021.0 mb)
Winds: from the NW (320 degrees) at 5 MPH (4 knots; 2.1 m/s)
Visibility: 6 or more miles (10+ km)
Ceiling: ceiling and visibility are OK
Clouds: unknown
Weather: no significant weather observed at this time

METAR text: ENRY 190950Z 27005KT 240V300 CAVOK 04/M06 Q1021 NOSIG
Conditions at: ENRY (RYGGE (NOR-AFB) , NO) observed 0950 UTC 19 March 2019
Temperature: 4.0°C (39°F)
Dewpoint: -6.0°C (21°F) [RH = 48%]
Pressure (altimeter): 30.15 inches Hg (1021.0 mb)
Winds: from the W (270 degrees) at 6 MPH (5 knots; 2.6 m/s)
Visibility: 6 or more miles (10+ km)
Ceiling: ceiling and visibility are OK
Clouds: unknown
Weather: no significant weather observed at this time

METAR text: ENRY 190920Z 27007KT CAVOK 04/M06 Q1021 NOSIG
Conditions at: ENRY (RYGGE (NOR-AFB) , NO) observed 0920 UTC 19 March 2019
Temperature: 4.0°C (39°F)
Dewpoint: -6.0°C (21°F) [RH = 48%]
Pressure (altimeter): 30.15 inches Hg (1021.0 mb)
Winds: from the W (270 degrees) at 8 MPH (7 knots; 3.6 m/s)
Visibility: 6 or more miles (10+ km)
Ceiling: ceiling and visibility are OK
Clouds: unknown
Weather: no significant weather observed at this time

METAR text: ENRY 190850Z 26003KT 200V300 CAVOK 03/M05 Q1021 NOSIG
Conditions at: ENRY (RYGGE (NOR-AFB) , NO) observed 0850 UTC 19 March 2019
Temperature: 3.0°C (37°F)
Dewpoint: -5.0°C (23°F) [RH = 56%]
Pressure (altimeter): 30.15 inches Hg (1021.0 mb)
Winds: from the W (260 degrees) at 3 MPH (3 knots; 1.5 m/s)
Visibility: 6 or more miles (10+ km)
Ceiling: ceiling and visibility are OK
Clouds: unknown
Weather: no significant weather observed at this time

METAR text: ENRY 190820Z 28006KT CAVOK 03/M06 Q1020 NOSIG
Conditions at: ENRY (RYGGE (NOR-AFB) , NO) observed 0820 UTC 19 March 2019
Temperature: 3.0°C (37°F)
Dewpoint: -6.0°C (21°F) [RH = 52%]
Pressure (altimeter): 30.12 inches Hg (1020.0 mb)
Winds: from the W (280 degrees) at 7 MPH (6 knots; 3.1 m/s)
Visibility: 6 or more miles (10+ km)
Ceiling: ceiling and visibility are OK
Clouds: unknown
Weather: no significant weather observed at this time

METAR text: ENRY 190750Z 29004KT CAVOK 02/M05 Q1020 NOSIG
Conditions at: ENRY (RYGGE (NOR-AFB) , NO) observed 0750 UTC 19 March 2019
Temperature: 2.0°C (36°F)
Dewpoint: -5.0°C (23°F) [RH = 60%]
Pressure (altimeter): 30.12 inches Hg (1020.0 mb)
Winds: from the WNW (290 degrees) at 5 MPH (4 knots; 2.1 m/s)
Visibility: 6 or more miles (10+ km)
Ceiling: ceiling and visibility are OK
Clouds: unknown
Weather: no significant weather observed at this time

METAR text: ENRY 190720Z 32003KT 290V080 CAVOK 01/M05 Q1020 NOSIG
Conditions at: ENRY (RYGGE (NOR-AFB) , NO) observed 0720 UTC 19 March 2019
Temperature: 1.0°C (34°F)
Dewpoint: -5.0°C (23°F) [RH = 64%]
Pressure (altimeter): 30.12 inches Hg (1020.0 mb)
Winds: from the NW (320 degrees) at 3 MPH (3 knots; 1.5 m/s)
Visibility: 6 or more miles (10+ km)
Ceiling: ceiling and visibility are OK
Clouds: unknown
Weather: no significant weather observed at this time

METAR text: ENRY 190650Z AUTO VRB02KT 9999NDV NCD 01/M05 Q1020
Conditions at: ENRY (RYGGE (NOR-AFB) , NO) observed 0650 UTC 19 March 2019
Temperature: 1.0°C (34°F)
Dewpoint: -5.0°C (23°F) [RH = 64%]
Pressure (altimeter): 30.12 inches Hg (1020.0 mb)
Winds: variable direction winds at 2 MPH (2 knots; 1.0 m/s)
Visibility: missing
Ceiling: at least 12,000 feet AGL
Clouds: sky clear below 12,000 feet AGL
Weather: no significant weather observed at this time

METAR text: ENRY 190620Z AUTO 30004KT 280V060 9999NDV NCD 00/M05 Q1019
Conditions at: ENRY (RYGGE (NOR-AFB) , NO) observed 0620 UTC 19 March 2019
Temperature: 0.0°C (32°F)
Dewpoint: -5.0°C (23°F) [RH = 69%]
Pressure (altimeter): 30.09 inches Hg (1019.0 mb)
Winds: from the WNW (300 degrees) at 5 MPH (4 knots; 2.1 m/s)
Visibility: missing
Ceiling: at least 12,000 feet AGL
Clouds: sky clear below 12,000 feet AGL
Weather: no significant weather observed at this time

METAR text: ENRY 190550Z AUTO 28006KT 9999NDV NCD M01/M06 Q1019
Conditions at: ENRY (RYGGE (NOR-AFB) , NO) observed 0550 UTC 19 March 2019
Temperature: -1.0°C (30°F)
Dewpoint: -6.0°C (21°F) [RH = 69%]
Pressure (altimeter): 30.09 inches Hg (1019.0 mb)
Winds: from the W (280 degrees) at 7 MPH (6 knots; 3.1 m/s)
Visibility: missing
Ceiling: at least 12,000 feet AGL
Clouds: sky clear below 12,000 feet AGL
Weather: no significant weather observed at this time

METAR text: ENRY 190520Z AUTO 28007KT 9999NDV NCD M01/M06 Q1019
Conditions at: ENRY (RYGGE (NOR-AFB) , NO) observed 0520 UTC 19 March 2019
Temperature: -1.0°C (30°F)
Dewpoint: -6.0°C (21°F) [RH = 69%]
Pressure (altimeter): 30.09 inches Hg (1019.0 mb)
Winds: from the W (280 degrees) at 8 MPH (7 knots; 3.6 m/s)
Visibility: missing
Ceiling: at least 12,000 feet AGL
Clouds: sky clear below 12,000 feet AGL
Weather: no significant weather observed at this time

METAR text: ENRY 190450Z AUTO 26005KT 9999NDV NCD M00/M06 Q1018
Conditions at: ENRY (RYGGE (NOR-AFB) , NO) observed 0450 UTC 19 March 2019
Temperature: 0.0°C (32°F)
Dewpoint: -6.0°C (21°F) [RH = 64%]
Pressure (altimeter): 30.06 inches Hg (1018.0 mb)
Winds: from the W (260 degrees) at 6 MPH (5 knots; 2.6 m/s)
Visibility: missing
Ceiling: at least 12,000 feet AGL
Clouds: sky clear below 12,000 feet AGL
Weather: no significant weather observed at this time

METAR text: ENRY 190420Z AUTO 29005KT 9999NDV NCD 00/M08 Q1018
Conditions at: ENRY (RYGGE (NOR-AFB) , NO) observed 0420 UTC 19 March 2019
Temperature: 0.0°C (32°F)
Dewpoint: -8.0°C (18°F) [RH = 55%]
Pressure (altimeter): 30.06 inches Hg (1018.0 mb)
Winds: from the WNW (290 degrees) at 6 MPH (5 knots; 2.6 m/s)
Visibility: missing
Ceiling: at least 12,000 feet AGL
Clouds: sky clear below 12,000 feet AGL
Weather: no significant weather observed at this time

METAR text: ENRY 190350Z AUTO 31006KT 9999NDV NCD M00/M07 Q1018
Conditions at: ENRY (RYGGE (NOR-AFB) , NO) observed 0350 UTC 19 March 2019
Temperature: 0.0°C (32°F)
Dewpoint: -7.0°C (19°F) [RH = 59%]
Pressure (altimeter): 30.06 inches Hg (1018.0 mb)
Winds: from the NW (310 degrees) at 7 MPH (6 knots; 3.1 m/s)
Visibility: missing
Ceiling: at least 12,000 feet AGL
Clouds: sky clear below 12,000 feet AGL
Weather: no significant weather observed at this time

METAR text: ENRY 190320Z AUTO 30007KT 9999NDV NCD 00/M06 Q1017
Conditions at: ENRY (RYGGE (NOR-AFB) , NO) observed 0320 UTC 19 March 2019
Temperature: 0.0°C (32°F)
Dewpoint: -6.0°C (21°F) [RH = 64%]
Pressure (altimeter): 30.03 inches Hg (1017.0 mb)
Winds: from the WNW (300 degrees) at 8 MPH (7 knots; 3.6 m/s)
Visibility: missing
Ceiling: at least 12,000 feet AGL
Clouds: sky clear below 12,000 feet AGL
Weather: no significant weather observed at this time

METAR text: ENRY 190250Z AUTO 29008KT 9999NDV NCD 01/M07 Q1017
Conditions at: ENRY (RYGGE (NOR-AFB) , NO) observed 0250 UTC 19 March 2019
Temperature: 1.0°C (34°F)
Dewpoint: -7.0°C (19°F) [RH = 55%]
Pressure (altimeter): 30.03 inches Hg (1017.0 mb)
Winds: from the WNW (290 degrees) at 9 MPH (8 knots; 4.1 m/s)
Visibility: missing
Ceiling: at least 12,000 feet AGL
Clouds: sky clear below 12,000 feet AGL
Weather: no significant weather observed at this time

METAR text: ENRY 190220Z AUTO 30005KT 9999NDV NCD 00/M06 Q1016
Conditions at: ENRY (RYGGE (NOR-AFB) , NO) observed 0220 UTC 19 March 2019
Temperature: 0.0°C (32°F)
Dewpoint: -6.0°C (21°F) [RH = 64%]
Pressure (altimeter): 30.00 inches Hg (1016.0 mb)
Winds: from the WNW (300 degrees) at 6 MPH (5 knots; 2.6 m/s)
Visibility: missing
Ceiling: at least 12,000 feet AGL
Clouds: sky clear below 12,000 feet AGL
Weather: no significant weather observed at this time

METAR text: ENRY 190150Z AUTO 30007KT 9999NDV NCD 01/M08 Q1016
Conditions at: ENRY (RYGGE (NOR-AFB) , NO) observed 0150 UTC 19 March 2019
Temperature: 1.0°C (34°F)
Dewpoint: -8.0°C (18°F) [RH = 51%]
Pressure (altimeter): 30.00 inches Hg (1016.0 mb)
Winds: from the WNW (300 degrees) at 8 MPH (7 knots; 3.6 m/s)
Visibility: missing
Ceiling: at least 12,000 feet AGL
Clouds: sky clear below 12,000 feet AGL
Weather: no significant weather observed at this time

METAR text: ENRY 190120Z AUTO 29003KT 250V340 9999NDV NCD 00/M07 Q1016
Conditions at: ENRY (RYGGE (NOR-AFB) , NO) observed 0120 UTC 19 March 2019
Temperature: 0.0°C (32°F)
Dewpoint: -7.0°C (19°F) [RH = 59%]
Pressure (altimeter): 30.00 inches Hg (1016.0 mb)
Winds: from the WNW (290 degrees) at 3 MPH (3 knots; 1.5 m/s)
Visibility: missing
Ceiling: at least 12,000 feet AGL
Clouds: sky clear below 12,000 feet AGL
Weather: no significant weather observed at this time

METAR text: ENRY 190050Z AUTO 33005KT 9999NDV NCD 01/M07 Q1015
Conditions at: ENRY (RYGGE (NOR-AFB) , NO) observed 0050 UTC 19 March 2019
Temperature: 1.0°C (34°F)
Dewpoint: -7.0°C (19°F) [RH = 55%]
Pressure (altimeter): 29.97 inches Hg (1015.0 mb)
Winds: from the NNW (330 degrees) at 6 MPH (5 knots; 2.6 m/s)
Visibility: missing
Ceiling: at least 12,000 feet AGL
Clouds: sky clear below 12,000 feet AGL
Weather: no significant weather observed at this time

METAR text: ENRY 190020Z AUTO 33004KT 290V350 9999NDV NCD 01/M07 Q1015
Conditions at: ENRY (RYGGE (NOR-AFB) , NO) observed 0020 UTC 19 March 2019
Temperature: 1.0°C (34°F)
Dewpoint: -7.0°C (19°F) [RH = 55%]
Pressure (altimeter): 29.97 inches Hg (1015.0 mb)
Winds: from the NNW (330 degrees) at 5 MPH (4 knots; 2.1 m/s)
Visibility: missing
Ceiling: at least 12,000 feet AGL
Clouds: sky clear below 12,000 feet AGL
Weather: no significant weather observed at this time

METAR text: ENRY 182350Z AUTO 31006KT 9999NDV NCD 02/M08 Q1015
Conditions at: ENRY (RYGGE (NOR-AFB) , NO) observed 2350 UTC 18 March 2019
Temperature: 2.0°C (36°F)
Dewpoint: -8.0°C (18°F) [RH = 47%]
Pressure (altimeter): 29.97 inches Hg (1015.0 mb)
Winds: from the NW (310 degrees) at 7 MPH (6 knots; 3.1 m/s)
Visibility: missing
Ceiling: at least 12,000 feet AGL
Clouds: sky clear below 12,000 feet AGL
Weather: no significant weather observed at this time

METAR text: ENRY 182320Z AUTO 35010KT 9999NDV NCD 02/M07 Q1014
Conditions at: ENRY (RYGGE (NOR-AFB) , NO) observed 2320 UTC 18 March 2019
Temperature: 2.0°C (36°F)
Dewpoint: -7.0°C (19°F) [RH = 51%]
Pressure (altimeter): 29.94 inches Hg (1014.0 mb)
Winds: from the N (350 degrees) at 12 MPH (10 knots; 5.1 m/s)
Visibility: missing
Ceiling: at least 12,000 feet AGL
Clouds: sky clear below 12,000 feet AGL
Weather: no significant weather observed at this time

METAR text: ENRY 182250Z AUTO 34007KT 310V010 9999NDV NCD 02/M07 Q1014
Conditions at: ENRY (RYGGE (NOR-AFB) , NO) observed 2250 UTC 18 March 2019
Temperature: 2.0°C (36°F)
Dewpoint: -7.0°C (19°F) [RH = 51%]
Pressure (altimeter): 29.94 inches Hg (1014.0 mb)
Winds: from the NNW (340 degrees) at 8 MPH (7 knots; 3.6 m/s)
Visibility: missing
Ceiling: at least 12,000 feet AGL
Clouds: sky clear below 12,000 feet AGL
Weather: no significant weather observed at this time

METAR text: ENRY 182220Z AUTO 34008KT 9999NDV NCD 01/M07 Q1013
Conditions at: ENRY (RYGGE (NOR-AFB) , NO) observed 2220 UTC 18 March 2019
Temperature: 1.0°C (34°F)
Dewpoint: -7.0°C (19°F) [RH = 55%]
Pressure (altimeter): 29.91 inches Hg (1013.0 mb)
Winds: from the NNW (340 degrees) at 9 MPH (8 knots; 4.1 m/s)
Visibility: missing
Ceiling: at least 12,000 feet AGL
Clouds: sky clear below 12,000 feet AGL
Weather: no significant weather observed at this time

METAR text: ENRY 182150Z AUTO 33004KT 9999NDV NCD 00/M06 Q1013
Conditions at: ENRY (RYGGE (NOR-AFB) , NO) observed 2150 UTC 18 March 2019
Temperature: 0.0°C (32°F)
Dewpoint: -6.0°C (21°F) [RH = 64%]
Pressure (altimeter): 29.91 inches Hg (1013.0 mb)
Winds: from the NNW (330 degrees) at 5 MPH (4 knots; 2.1 m/s)
Visibility: missing
Ceiling: at least 12,000 feet AGL
Clouds: sky clear below 12,000 feet AGL
Weather: no significant weather observed at this time

METAR text: ENRY 182120Z AUTO 32003KT 270V350 9999NDV NCD 00/M06 Q1013
Conditions at: ENRY (RYGGE (NOR-AFB) , NO) observed 2120 UTC 18 March 2019
Temperature: 0.0°C (32°F)
Dewpoint: -6.0°C (21°F) [RH = 64%]
Pressure (altimeter): 29.91 inches Hg (1013.0 mb)
Winds: from the NW (320 degrees) at 3 MPH (3 knots; 1.5 m/s)
Visibility: missing
Ceiling: at least 12,000 feet AGL
Clouds: sky clear below 12,000 feet AGL
Weather: no significant weather observed at this time

METAR text: ENRY 182050Z AUTO 29003KT 9999NDV NCD 01/M07 Q1012
Conditions at: ENRY (RYGGE (NOR-AFB) , NO) observed 2050 UTC 18 March 2019
Temperature: 1.0°C (34°F)
Dewpoint: -7.0°C (19°F) [RH = 55%]
Pressure (altimeter): 29.88 inches Hg (1012.0 mb)
Winds: from the WNW (290 degrees) at 3 MPH (3 knots; 1.5 m/s)
Visibility: missing
Ceiling: at least 12,000 feet AGL
Clouds: sky clear below 12,000 feet AGL
Weather: no significant weather observed at this time

METAR text: ENRY 182020Z AUTO 29005KT 9999NDV NCD 02/M07 Q1011
Conditions at: ENRY (RYGGE (NOR-AFB) , NO) observed 2020 UTC 18 March 2019
Temperature: 2.0°C (36°F)
Dewpoint: -7.0°C (19°F) [RH = 51%]
Pressure (altimeter): 29.85 inches Hg (1011.0 mb)
Winds: from the WNW (290 degrees) at 6 MPH (5 knots; 2.6 m/s)
Visibility: missing
Ceiling: at least 12,000 feet AGL
Clouds: sky clear below 12,000 feet AGL
Weather: no significant weather observed at this time

METAR text: ENRY 181950Z AUTO VRB02KT 9999NDV NCD 01/M07 Q1011
Conditions at: ENRY (RYGGE (NOR-AFB) , NO) observed 1950 UTC 18 March 2019
Temperature: 1.0°C (34°F)
Dewpoint: -7.0°C (19°F) [RH = 55%]
Pressure (altimeter): 29.85 inches Hg (1011.0 mb)
Winds: variable direction winds at 2 MPH (2 knots; 1.0 m/s)
Visibility: missing
Ceiling: at least 12,000 feet AGL
Clouds: sky clear below 12,000 feet AGL
Weather: no significant weather observed at this time

METAR text: ENRY 181920Z 36003KT CAVOK 02/M08 Q1010
Conditions at: ENRY (RYGGE (NOR-AFB) , NO) observed 1920 UTC 18 March 2019
Temperature: 2.0°C (36°F)
Dewpoint: -8.0°C (18°F) [RH = 47%]
Pressure (altimeter): 29.82 inches Hg (1010.0 mb)
Winds: from the N (360 degrees) at 3 MPH (3 knots; 1.5 m/s)
Visibility: 6 or more miles (10+ km)
Ceiling: ceiling and visibility are OK
Clouds: unknown
Weather: no significant weather observed at this time

Forecast for: ENRY (RYGGE (NOR-AFB) , NO)
Text: TAF ENRY 2006/2106 23010KT 9999 FEW020
Forecast period: 0600 UTC 20 March 2019 to 0600 UTC 21 March 2019
Forecast type: FROM: standard forecast or significant change
Winds: from the SW (230 degrees) at 12 MPH (10 knots; 5.1 m/s)
Visibility: 6 or more miles 10+ km)
Ceiling: at least 12,000 feet AGL
Clouds: few clouds at 2000 feet AGL
Weather: no significant weather forecast for this period
Text: TEMPO 2006/2008 BKN007
Forecast period: 0600 to 0800 UTC 20 March 2019
Forecast type: TEMPORARY: The following changes expected for less than half the time period
Visibility: missing
Ceiling: 700 feet AGL
Clouds: broken clouds at 700 feet AGL
Weather: no significant weather forecast for this period
Text: PROB40 2103/2106 2000 BR BKN003
Forecast period: 0300 to 0600 UTC 21 March 2019
Forecast type: PROBABLE: 40 percent likelihood of the following during this time
Visibility: 1.24 miles (2.00 km)
Ceiling: 300 feet AGL
Clouds: broken clouds at 300 feet AGL
Weather: BR  (mist)